createdAt,value
2022-07-27T00:02:07.152Z,77.23
2022-07-27T00:04:34.867Z,77.61
2022-07-27T00:07:02.762Z,77.68
2022-07-27T00:09:30.315Z,76.58
2022-07-27T00:11:57.900Z,77.08
2022-07-27T00:14:26.994Z,75.76
2022-07-27T00:16:54.570Z,74.90
2022-07-27T00:19:23.801Z,74.96
2022-07-27T00:21:51.383Z,74.92
2022-07-27T00:24:19.089Z,75.41
2022-07-27T00:26:46.682Z,75.29
2022-07-27T00:29:14.694Z,75.47
2022-07-27T00:31:44.149Z,74.88
2022-07-27T00:34:11.920Z,74.82
2022-07-27T00:36:39.487Z,74.77
2022-07-27T00:39:07.060Z,74.81
2022-07-27T00:41:34.749Z,74.56
2022-07-27T00:44:05.144Z,75.93
2022-07-27T00:46:32.768Z,73.73
2022-07-27T00:49:01.865Z,75.22
2022-07-27T00:51:29.581Z,75.69
2022-07-27T00:53:57.774Z,75.72
2022-07-27T00:56:25.648Z,76.69
2022-07-27T00:58:54.488Z,75.81
2022-07-27T01:01:22.682Z,75.76
2022-07-27T01:03:50.343Z,74.46
2022-07-27T01:06:26.852Z,76.78
2022-07-27T01:09:16.859Z,76.34
2022-07-27T01:11:44.853Z,75.75
2022-07-27T01:14:13.745Z,76.72
2022-07-27T01:16:41.843Z,77.59
2022-07-27T01:19:10.739Z,77.48
2022-07-27T01:21:40.149Z,77.06
2022-07-27T01:24:08.586Z,78.10
2022-07-27T01:26:36.693Z,77.14
2022-07-27T01:29:04.414Z,77.78
2022-07-27T01:31:32.487Z,76.19
2022-07-27T01:34:01.016Z,74.85
2022-07-27T01:36:28.666Z,75.60
2022-07-27T01:38:58.090Z,75.29
2022-07-27T01:41:26.476Z,76.14
2022-07-27T01:43:54.064Z,76.72
2022-07-27T01:46:21.688Z,75.79
2022-07-27T01:48:49.346Z,74.73
2022-07-27T01:51:16.926Z,74.41
2022-07-27T01:53:44.636Z,74.03
2022-07-27T01:56:15.002Z,73.99
2022-07-27T01:58:43.768Z,74.01
2022-07-27T02:01:11.470Z,73.54
2022-07-27T02:03:39.502Z,73.02
2022-07-27T02:06:07.963Z,72.69
2022-07-27T02:08:36.934Z,72.87
2022-07-27T02:11:22.819Z,72.46
2022-07-27T02:13:51.754Z,72.80
2022-07-27T02:16:20.409Z,72.94
2022-07-27T02:18:49.023Z,72.64
2022-07-27T02:21:16.974Z,72.11
2022-07-27T02:23:46.795Z,71.96
2022-07-27T02:26:14.512Z,71.68
2022-07-27T02:28:42.269Z,71.63
2022-07-27T02:31:11.635Z,71.78
2022-07-27T02:33:39.228Z,71.92
2022-07-27T02:36:06.942Z,71.61
2022-07-27T02:38:34.531Z,71.47
2022-07-27T02:41:02.102Z,71.36
2022-07-27T02:43:31.721Z,71.49
2022-07-27T02:45:59.366Z,70.97
2022-07-27T02:48:28.330Z,71.67
2022-07-27T02:51:00.331Z,71.38
2022-07-27T02:53:27.952Z,71.78
2022-07-27T02:55:55.528Z,72.17
2022-07-27T02:58:23.613Z,72.14
2022-07-27T03:00:57.850Z,72.54
2022-07-27T03:03:36.018Z,72.36
2022-07-27T03:06:06.685Z,72.20
2022-07-27T03:08:34.473Z,70.75
2022-07-27T03:11:02.110Z,71.06
2022-07-27T03:13:29.955Z,73.56
2022-07-27T03:15:58.218Z,77.65
2022-07-27T03:18:26.047Z,78.11
2022-07-27T03:20:53.626Z,77.91
2022-07-27T03:23:22.561Z,76.38
2022-07-27T03:25:50.132Z,76.24
2022-07-27T03:28:17.721Z,76.00
2022-07-27T03:30:45.360Z,76.60
2022-07-27T03:33:12.985Z,76.81
2022-07-27T03:35:40.573Z,78.16
2022-07-27T03:38:08.161Z,78.52
2022-07-27T03:40:40.868Z,78.42
2022-07-27T03:43:08.717Z,79.31
2022-07-27T03:45:36.465Z,79.51
2022-07-27T03:48:04.216Z,79.35
2022-07-27T03:50:31.838Z,79.51
2022-07-27T03:52:59.427Z,79.95
2022-07-27T03:55:27.593Z,79.55
2022-07-27T03:57:56.726Z,79.17
2022-07-27T04:00:24.481Z,78.88
2022-07-27T04:02:53.467Z,78.86
2022-07-27T04:05:21.739Z,78.23
2022-07-27T04:07:49.921Z,78.11
2022-07-27T04:10:22.898Z,79.17
2022-07-27T04:12:50.547Z,78.21
2022-07-27T04:15:21.391Z,76.83
2022-07-27T04:17:55.151Z,79.34
2022-07-27T04:20:24.251Z,76.16
2022-07-27T04:22:51.828Z,78.55
2022-07-27T04:25:19.445Z,75.88
2022-07-27T04:27:47.143Z,75.19
2022-07-27T04:30:15.100Z,78.24
2022-07-27T04:32:44.043Z,75.28
2022-07-27T04:35:12.081Z,75.36
2022-07-27T04:37:40.016Z,75.49
2022-07-27T04:40:25.474Z,74.66
2022-07-27T04:42:53.030Z,73.29
2022-07-27T04:45:20.739Z,72.69
2022-07-27T04:47:49.683Z,72.63
2022-07-27T04:50:17.524Z,71.66
2022-07-27T04:52:45.234Z,71.11
2022-07-27T04:55:13.383Z,71.12
2022-07-27T04:57:41.929Z,73.02
2022-07-27T05:00:11.815Z,71.95
2022-07-27T05:02:40.744Z,73.12
2022-07-27T05:05:11.334Z,73.48
2022-07-27T05:07:38.907Z,73.73
2022-07-27T05:10:07.090Z,74.09
2022-07-27T05:12:34.667Z,73.78
2022-07-27T05:15:02.257Z,72.49
2022-07-27T05:17:29.845Z,73.03
2022-07-27T05:19:57.440Z,73.33
2022-07-27T05:22:26.348Z,72.28
2022-07-27T05:24:54.269Z,74.34
2022-07-27T05:27:21.939Z,74.63
2022-07-27T05:29:49.848Z,74.91
2022-07-27T05:32:17.539Z,74.43
2022-07-27T05:34:46.023Z,72.64
2022-07-27T05:37:14.042Z,72.80
2022-07-27T05:39:43.406Z,73.17
2022-07-27T05:42:11.102Z,69.86
2022-07-27T05:44:38.706Z,69.50
2022-07-27T05:47:06.562Z,68.76
2022-07-27T05:49:34.281Z,70.12
2022-07-27T05:52:01.973Z,69.53
2022-07-27T05:54:29.522Z,70.40
2022-07-27T05:56:59.857Z,68.01
2022-07-27T05:59:28.057Z,69.85
2022-07-27T06:01:55.891Z,67.60
2022-07-27T06:04:23.482Z,70.28
2022-07-27T06:07:08.503Z,69.70
2022-07-27T06:09:36.106Z,70.94
2022-07-27T06:12:05.344Z,71.47
2022-07-27T06:14:33.533Z,69.11
2022-07-27T06:17:01.181Z,68.93
2022-07-27T06:19:36.173Z,68.39
2022-07-27T06:22:04.450Z,65.58
2022-07-27T06:24:32.032Z,67.37
2022-07-27T06:26:59.622Z,68.12
2022-07-27T06:29:28.649Z,65.91
2022-07-27T06:31:56.296Z,66.76
2022-07-27T06:34:23.940Z,68.35
2022-07-27T06:36:52.902Z,66.52
2022-07-27T06:39:20.971Z,65.23
2022-07-27T06:41:48.946Z,66.91
2022-07-27T06:44:16.533Z,64.92
2022-07-27T06:46:45.547Z,64.29
2022-07-27T06:49:13.691Z,63.90
2022-07-27T06:51:41.745Z,60.01
2022-07-27T06:54:09.397Z,59.70
2022-07-27T06:56:36.995Z,58.92
2022-07-27T06:59:04.671Z,61.24
2022-07-27T07:01:32.321Z,57.99
2022-07-27T07:04:01.359Z,56.76
2022-07-27T07:06:28.994Z,55.27
2022-07-27T07:08:56.574Z,56.15
2022-07-27T07:11:24.174Z,56.40
2022-07-27T07:13:51.761Z,56.82
2022-07-27T07:16:19.421Z,57.90
2022-07-27T07:18:52.024Z,59.61
2022-07-27T07:21:21.941Z,62.58
2022-07-27T07:23:50.130Z,63.73
2022-07-27T07:26:17.689Z,65.40
2022-07-27T07:28:45.290Z,65.66
2022-07-27T07:31:12.958Z,64.15
2022-07-27T07:33:40.597Z,64.66
2022-07-27T07:36:12.182Z,66.28
2022-07-27T07:38:43.262Z,65.35
2022-07-27T07:41:10.995Z,66.57
2022-07-27T07:43:39.741Z,67.67
2022-07-27T07:46:08.597Z,68.89
2022-07-27T07:48:36.426Z,68.66
2022-07-27T07:51:04.245Z,68.84
2022-07-27T07:53:31.910Z,66.66
2022-07-27T07:56:00.853Z,68.52
2022-07-27T07:58:28.771Z,71.12
2022-07-27T08:00:56.344Z,70.28
2022-07-27T08:03:24.078Z,68.97
2022-07-27T08:05:51.811Z,70.11
2022-07-27T08:08:19.382Z,70.82
2022-07-27T08:10:47.914Z,70.58
2022-07-27T08:13:21.848Z,70.24
2022-07-27T08:15:50.398Z,68.95
2022-07-27T08:18:17.974Z,68.08
2022-07-27T08:20:45.940Z,67.27
2022-07-27T08:23:13.720Z,66.00
2022-07-27T08:25:42.359Z,65.13
2022-07-27T08:28:10.180Z,65.03
2022-07-27T08:30:39.158Z,64.83
2022-07-27T08:33:07.413Z,63.44
2022-07-27T08:35:36.186Z,63.10
2022-07-27T08:38:06.704Z,58.63
2022-07-27T08:40:45.190Z,56.91
2022-07-27T08:43:21.872Z,58.10
2022-07-27T08:45:58.169Z,57.45
2022-07-27T08:48:27.534Z,57.93
2022-07-27T08:50:55.141Z,55.92
2022-07-27T08:53:23.478Z,55.86
2022-07-27T08:55:51.586Z,57.77
2022-07-27T08:58:19.412Z,55.91
2022-07-27T09:00:49.678Z,55.19
2022-07-27T09:03:21.518Z,55.91
2022-07-27T09:05:52.173Z,54.73
2022-07-27T09:08:23.975Z,54.54
2022-07-27T09:10:52.671Z,55.48
2022-07-27T09:13:23.335Z,55.46
2022-07-27T09:16:16.713Z,56.64
2022-07-27T09:18:42.984Z,55.65
2022-07-27T09:21:12.797Z,56.58
2022-07-27T09:23:41.689Z,57.54
2022-07-27T09:26:31.066Z,57.10
2022-07-27T09:29:02.403Z,54.65
2022-07-27T09:31:30.491Z,57.66
2022-07-27T09:34:01.355Z,56.11
2022-07-27T09:36:31.385Z,53.41
2022-07-27T09:39:03.389Z,55.22
2022-07-27T09:41:41.627Z,55.07
2022-07-27T09:46:57.662Z,51.84
2022-07-27T09:49:32.084Z,51.68
2022-07-27T09:52:02.305Z,53.14
2022-07-27T09:54:44.342Z,55.34
2022-07-27T09:57:12.316Z,51.96
2022-07-27T09:59:40.230Z,53.74
2022-07-27T10:02:08.204Z,55.67
2022-07-27T10:04:37.226Z,54.80
2022-07-27T10:07:08.274Z,54.46
2022-07-27T10:09:37.158Z,54.21
2022-07-27T10:12:05.398Z,54.16
2022-07-27T10:14:33.498Z,50.96
2022-07-27T10:17:02.387Z,52.48
2022-07-27T10:19:35.151Z,51.47
2022-07-27T10:22:04.143Z,51.75
2022-07-27T10:24:34.789Z,51.22
2022-07-27T10:27:19.998Z,48.68
2022-07-27T10:29:48.366Z,48.44
2022-07-27T10:32:24.689Z,47.35
2022-07-27T10:34:52.306Z,48.64
2022-07-27T10:37:27.745Z,50.07
2022-07-27T10:40:16.960Z,49.51
2022-07-27T10:42:49.031Z,50.19
2022-07-27T10:45:21.116Z,48.49
2022-07-27T10:47:50.545Z,48.65
2022-07-27T10:50:30.782Z,51.17
2022-07-27T10:53:03.155Z,51.12
2022-07-27T10:55:47.237Z,52.04
2022-07-27T10:58:46.570Z,52.25
2022-07-27T11:01:15.791Z,50.36
2022-07-27T11:03:49.408Z,49.30
2022-07-27T11:06:33.207Z,49.25
2022-07-27T11:09:53.218Z,53.29
2022-07-27T11:11:53.397Z,54.81
2022-07-27T11:14:30.126Z,54.26
2022-07-27T11:17:07.909Z,55.70
2022-07-27T11:19:52.175Z,55.91
2022-07-27T11:22:50.146Z,57.11
2022-07-27T11:25:19.123Z,57.88
2022-07-27T11:27:48.646Z,60.15
2022-07-27T11:30:22.996Z,60.84
2022-07-27T11:32:50.847Z,60.90
2022-07-27T11:35:20.124Z,59.37
2022-07-27T11:37:59.937Z,58.75
2022-07-27T11:43:33.653Z,53.83
2022-07-27T11:46:12.728Z,55.52
2022-07-27T11:49:05.355Z,53.99
2022-07-27T11:51:34.684Z,51.49
2022-07-27T11:54:04.692Z,53.76
2022-07-27T11:56:35.930Z,50.68
2022-07-27T11:59:07.514Z,50.08
2022-07-27T12:01:37.158Z,49.25
2022-07-27T12:04:13.901Z,50.59
2022-07-27T12:06:43.595Z,52.26
2022-07-27T12:09:15.342Z,53.54
2022-07-27T12:11:59.262Z,54.23
2022-07-27T12:14:38.165Z,52.36
2022-07-27T12:17:26.841Z,49.25
2022-07-27T12:19:59.834Z,51.81
2022-07-27T12:22:33.602Z,52.49
2022-07-27T12:25:05.641Z,54.48
2022-07-27T12:27:39.533Z,53.16
2022-07-27T12:30:10.486Z,55.41
2022-07-27T12:32:41.085Z,53.20
2022-07-27T12:35:18.441Z,55.32
2022-07-27T12:37:46.194Z,55.20
2022-07-27T12:40:19.006Z,55.70
2022-07-27T12:42:56.959Z,54.02
2022-07-27T12:45:24.904Z,52.80
2022-07-27T12:47:52.615Z,50.88
2022-07-27T12:50:29.419Z,51.18
2022-07-27T12:52:56.992Z,51.72
2022-07-27T12:55:25.078Z,52.46
2022-07-27T12:57:56.496Z,53.10
2022-07-27T13:00:32.686Z,55.80
2022-07-27T13:03:01.852Z,56.10
2022-07-27T13:05:29.598Z,56.62
2022-07-27T13:07:57.892Z,60.30
2022-07-27T13:10:25.781Z,61.85
2022-07-27T13:12:54.701Z,62.26
2022-07-27T13:15:22.277Z,61.82
2022-07-27T13:17:50.122Z,63.47
2022-07-27T13:20:18.789Z,61.06
2022-07-27T13:22:47.027Z,61.56
2022-07-27T13:25:17.542Z,60.79
2022-07-27T13:27:45.485Z,57.99
2022-07-27T13:30:16.060Z,57.19
2022-07-27T13:32:44.738Z,58.21
2022-07-27T13:35:13.263Z,59.40
2022-07-27T13:37:42.052Z,55.97
2022-07-27T13:40:10.720Z,55.11
2022-07-27T13:42:38.681Z,56.02
2022-07-27T13:45:10.515Z,56.58
2022-07-27T13:47:41.669Z,55.89
2022-07-27T13:50:17.422Z,55.80
2022-07-27T13:52:46.713Z,54.83
2022-07-27T13:55:15.104Z,54.27
2022-07-27T13:57:43.219Z,54.21
2022-07-27T14:00:12.058Z,55.67
2022-07-27T14:02:41.847Z,56.80
2022-07-27T14:05:13.214Z,56.74
2022-07-27T14:07:41.793Z,57.44
2022-07-27T14:10:28.789Z,57.92
2022-07-27T14:12:59.164Z,57.86
2022-07-27T14:15:27.031Z,56.46
2022-07-27T14:17:56.313Z,57.47
2022-07-27T14:20:24.104Z,55.84
2022-07-27T14:22:52.114Z,57.44
2022-07-27T14:25:19.697Z,59.16
2022-07-27T14:27:47.288Z,59.74
2022-07-27T14:30:20.305Z,63.71
2022-07-27T14:32:48.665Z,64.06
2022-07-27T14:35:17.621Z,62.56
2022-07-27T14:37:45.734Z,61.43
2022-07-27T14:40:14.350Z,61.51
2022-07-27T14:42:41.949Z,61.21
2022-07-27T14:45:10.238Z,59.36
2022-07-27T14:47:37.829Z,61.05
2022-07-27T14:50:08.003Z,60.13
2022-07-27T14:52:37.112Z,58.91
2022-07-27T14:55:05.150Z,60.57
2022-07-27T14:57:33.092Z,59.59
2022-07-27T15:00:01.213Z,58.57
2022-07-27T15:02:28.834Z,59.19
2022-07-27T15:04:56.413Z,60.05
2022-07-27T15:07:24.022Z,59.88
2022-07-27T15:09:52.965Z,59.35
2022-07-27T15:12:20.542Z,57.14
2022-07-27T15:14:48.209Z,58.25
2022-07-27T15:17:16.342Z,58.82
2022-07-27T15:19:44.274Z,61.47
2022-07-27T15:22:12.253Z,60.67
2022-07-27T15:24:39.934Z,61.17
2022-07-27T15:27:09.330Z,60.40
2022-07-27T15:29:37.259Z,62.27
2022-07-27T15:32:04.958Z,60.70
2022-07-27T15:34:32.549Z,60.56
2022-07-27T15:37:00.122Z,59.84
2022-07-27T15:39:27.714Z,59.94
2022-07-27T15:41:55.285Z,58.22
2022-07-27T15:44:24.182Z,57.16
2022-07-27T15:46:51.816Z,57.47
2022-07-27T15:49:19.619Z,57.78
2022-07-27T15:51:48.055Z,58.41
2022-07-27T15:54:15.662Z,58.39
2022-07-27T15:56:43.305Z,59.17
2022-07-27T15:59:11.314Z,58.15
2022-07-27T16:01:40.551Z,60.86
2022-07-27T16:04:09.069Z,59.20
2022-07-27T16:06:39.369Z,60.10
2022-07-27T16:09:09.248Z,62.28
2022-07-27T16:11:37.970Z,63.66
2022-07-27T16:14:05.513Z,62.85
2022-07-27T16:16:33.318Z,64.84
2022-07-27T16:19:12.606Z,63.02
2022-07-27T16:21:53.878Z,61.32
2022-07-27T16:24:23.650Z,61.93
2022-07-27T16:26:51.320Z,60.67
2022-07-27T16:29:19.133Z,62.14
2022-07-27T16:31:46.829Z,62.58
2022-07-27T16:34:15.837Z,61.50
2022-07-27T16:36:43.395Z,59.53
2022-07-27T16:39:11.369Z,59.97
2022-07-27T16:41:39.421Z,60.19
2022-07-27T16:44:07.025Z,60.70
2022-07-27T16:46:34.656Z,61.17
2022-07-27T16:49:02.303Z,61.69
2022-07-27T16:51:31.350Z,63.14
2022-07-27T16:53:58.897Z,65.47
2022-07-27T16:56:26.554Z,65.49
2022-07-27T16:58:54.133Z,63.34
2022-07-27T17:01:26.797Z,63.80
2022-07-27T17:03:55.270Z,63.04
2022-07-27T17:06:23.021Z,62.65
2022-07-27T17:08:52.405Z,62.66
2022-07-27T17:11:20.847Z,58.30
2022-07-27T17:13:50.129Z,61.15
2022-07-27T17:16:18.156Z,60.87
2022-07-27T17:18:45.910Z,60.43
2022-07-27T17:21:13.542Z,61.55
2022-07-27T17:23:41.682Z,63.15
2022-07-27T17:26:12.093Z,63.51
2022-07-27T17:28:40.466Z,63.32
2022-07-27T17:31:09.610Z,62.98
2022-07-27T17:33:37.810Z,63.28
2022-07-27T17:36:08.530Z,63.63
2022-07-27T17:38:41.878Z,61.96
2022-07-27T17:41:10.847Z,61.24
2022-07-27T17:43:39.347Z,64.24
2022-07-27T17:46:07.382Z,66.10
2022-07-27T17:48:35.320Z,66.12
2022-07-27T17:51:03.465Z,67.82
2022-07-27T17:53:31.081Z,67.40
2022-07-27T17:55:58.737Z,66.58
2022-07-27T17:58:30.214Z,67.30
2022-07-27T18:00:58.284Z,68.16
2022-07-27T18:03:25.870Z,65.56
2022-07-27T18:05:53.589Z,67.88
2022-07-27T18:08:21.151Z,66.34
2022-07-27T18:10:51.345Z,66.30
2022-07-27T18:13:18.985Z,64.61
2022-07-27T18:15:48.083Z,65.49
2022-07-27T18:18:16.573Z,67.67
2022-07-27T18:20:46.108Z,66.49
2022-07-27T18:23:14.078Z,67.46
2022-07-27T18:25:41.997Z,67.17
2022-07-27T18:28:09.545Z,65.94
2022-07-27T18:30:37.571Z,67.75
2022-07-27T18:33:06.662Z,66.15
2022-07-27T18:35:34.221Z,66.91
2022-07-27T18:38:01.794Z,67.86
2022-07-27T18:40:29.722Z,66.50
2022-07-27T18:42:57.253Z,65.19
2022-07-27T18:45:34.634Z,66.19
2022-07-27T18:48:02.794Z,66.81
2022-07-27T18:50:35.651Z,68.09
2022-07-27T18:53:06.923Z,67.31
2022-07-27T18:55:34.839Z,67.10
2022-07-27T18:58:02.449Z,63.89
2022-07-27T19:00:30.590Z,64.74
2022-07-27T19:02:58.765Z,66.11
2022-07-27T19:05:31.539Z,65.06
2022-07-27T19:08:11.476Z,65.99
2022-07-27T19:10:41.382Z,62.01
2022-07-27T19:13:11.603Z,64.03
2022-07-27T19:15:40.015Z,61.87
2022-07-27T19:18:08.747Z,64.50
2022-07-27T19:20:37.568Z,66.62
2022-07-27T19:23:05.189Z,66.21
2022-07-27T19:25:34.654Z,67.66
2022-07-27T19:28:02.676Z,67.40
2022-07-27T19:30:30.492Z,66.11
2022-07-27T19:32:58.256Z,67.54
2022-07-27T19:35:25.878Z,67.93
2022-07-27T19:37:53.690Z,68.79
2022-07-27T19:43:11.232Z,69.75
2022-07-27T19:45:38.844Z,68.68
2022-07-27T19:48:08.132Z,67.92
2022-07-27T19:50:35.977Z,69.19
2022-07-27T19:53:03.646Z,68.83
2022-07-27T19:55:31.272Z,69.20
2022-07-27T19:57:58.825Z,68.02
2022-07-27T20:00:27.821Z,66.90
2022-07-27T20:02:55.454Z,67.33
2022-07-27T20:05:23.353Z,68.96
2022-07-27T20:07:51.273Z,67.34
2022-07-27T20:10:21.507Z,67.31
2022-07-27T20:12:49.065Z,67.63
2022-07-27T20:15:16.677Z,68.12
2022-07-27T20:17:45.609Z,68.38
2022-07-27T20:20:13.429Z,68.51
2022-07-27T20:22:42.155Z,67.49
2022-07-27T20:25:11.023Z,69.99
2022-07-27T20:27:39.737Z,70.01
2022-07-27T20:30:08.936Z,68.97
2022-07-27T20:32:36.814Z,69.39
2022-07-27T20:35:06.677Z,69.79
2022-07-27T20:37:34.422Z,70.25
2022-07-27T20:40:02.187Z,71.72
2022-07-27T20:42:29.889Z,71.87
2022-07-27T20:44:57.554Z,70.25
2022-07-27T20:47:25.481Z,72.36
2022-07-27T20:49:53.050Z,72.29
2022-07-27T20:52:22.422Z,71.79
2022-07-27T20:54:50.438Z,71.29
2022-07-27T20:57:18.004Z,71.36
2022-07-27T20:59:45.578Z,71.52
2022-07-27T21:02:13.835Z,71.42
2022-07-27T21:04:41.469Z,71.38
2022-07-27T21:07:09.059Z,71.14
2022-07-27T21:09:38.059Z,70.35
2022-07-27T21:12:08.143Z,70.31
2022-07-27T21:14:35.694Z,70.23
2022-07-27T21:17:03.350Z,70.27
2022-07-27T21:19:30.967Z,69.68
2022-07-27T21:21:58.593Z,69.16
2022-07-27T21:24:26.074Z,68.75
2022-07-27T21:26:55.161Z,69.04
2022-07-27T21:29:25.977Z,68.90
2022-07-27T21:31:53.560Z,68.88
2022-07-27T21:34:21.829Z,68.92
2022-07-27T21:36:50.298Z,69.45
2022-07-27T21:39:18.947Z,70.27
2022-07-27T21:41:46.845Z,70.21
2022-07-27T21:44:16.311Z,69.77
2022-07-27T21:46:44.272Z,69.20
2022-07-27T21:49:13.154Z,69.30
2022-07-27T21:51:40.868Z,69.39
2022-07-27T21:54:08.430Z,69.09
2022-07-27T21:56:40.863Z,69.28
2022-07-27T21:59:10.078Z,69.18
2022-07-27T22:01:39.077Z,69.36
2022-07-27T22:04:07.193Z,69.12
2022-07-27T22:06:35.790Z,69.01
2022-07-27T22:09:03.530Z,69.27
2022-07-27T22:11:31.129Z,69.07
2022-07-27T22:13:58.719Z,69.08
2022-07-27T22:16:26.362Z,69.24
2022-07-27T22:18:56.701Z,69.30
2022-07-27T22:21:24.365Z,69.32
2022-07-27T22:23:52.156Z,69.59
2022-07-27T22:26:20.025Z,69.69
2022-07-27T22:28:47.934Z,69.99
2022-07-27T22:31:22.375Z,70.06
2022-07-27T22:33:51.302Z,70.31
2022-07-27T22:36:20.599Z,70.30
2022-07-27T22:38:48.297Z,70.48
2022-07-27T22:41:16.003Z,70.76
2022-07-27T22:43:43.556Z,70.99
2022-07-27T22:46:11.180Z,71.01
2022-07-27T22:48:39.129Z,71.13
2022-07-27T22:51:07.656Z,71.13
2022-07-27T22:53:38.438Z,71.39
2022-07-27T22:56:06.260Z,71.66
2022-07-27T22:58:33.935Z,72.08
2022-07-27T23:01:01.580Z,72.55
2022-07-27T23:03:29.302Z,73.20
2022-07-27T23:05:56.869Z,73.57
2022-07-27T23:08:24.433Z,74.12
2022-07-27T23:10:53.380Z,74.22
2022-07-27T23:13:22.794Z,74.59
2022-07-27T23:15:50.963Z,74.92
2022-07-27T23:18:18.964Z,75.24
2022-07-27T23:20:46.596Z,75.38
2022-07-27T23:23:16.213Z,75.44
2022-07-27T23:25:44.725Z,75.37
2022-07-27T23:28:13.701Z,75.58
2022-07-27T23:30:41.317Z,75.59
2022-07-27T23:33:08.893Z,75.74
2022-07-27T23:35:36.464Z,75.62
2022-07-27T23:38:04.132Z,75.88
2022-07-27T23:40:31.759Z,75.75
2022-07-27T23:42:59.381Z,76.08
2022-07-27T23:45:28.437Z,76.20
2022-07-27T23:47:56.072Z,76.81
2022-07-27T23:50:24.250Z,76.93
2022-07-27T23:52:51.853Z,76.95
2022-07-27T23:55:19.489Z,77.48
2022-07-27T23:57:47.242Z,78.07
